createdAt,value
2022-11-23T00:01:17.479Z,9.70
2022-11-23T00:03:46.709Z,9.70
2022-11-23T00:06:15.147Z,9.70
2022-11-23T00:08:44.228Z,9.70
2022-11-23T00:11:12.868Z,9.70
2022-11-23T00:13:41.827Z,9.70
2022-11-23T00:16:10.830Z,9.70
2022-11-23T00:18:40.434Z,9.70
2022-11-23T00:21:09.385Z,9.70
2022-11-23T00:23:38.193Z,9.70
2022-11-23T00:26:07.283Z,9.70
2022-11-23T00:28:38.745Z,9.70
2022-11-23T00:31:07.149Z,9.60
2022-11-23T00:33:35.771Z,9.60
2022-11-23T00:36:08.214Z,9.50
2022-11-23T00:38:36.364Z,9.60
2022-11-23T00:41:06.339Z,9.50
2022-11-23T00:43:34.596Z,9.60
2022-11-23T00:46:12.844Z,9.60
2022-11-23T00:48:42.943Z,9.50
2022-11-23T00:51:14.286Z,9.60
2022-11-23T00:53:42.725Z,9.60
2022-11-23T00:56:12.415Z,9.60
2022-11-23T00:58:40.886Z,9.60
2022-11-23T01:01:10.867Z,9.60
2022-11-23T01:03:40.966Z,9.70
2022-11-23T01:06:13.552Z,9.60
2022-11-23T01:08:41.994Z,9.60
2022-11-23T01:11:12.233Z,9.60
2022-11-23T01:13:42.395Z,9.60
2022-11-23T01:16:20.849Z,9.60
2022-11-23T01:18:54.375Z,9.60
2022-11-23T01:21:26.393Z,9.50
2022-11-23T01:23:55.009Z,9.50
2022-11-23T01:26:23.779Z,9.60
2022-11-23T01:28:52.395Z,9.60
2022-11-23T01:31:26.626Z,9.60
2022-11-23T01:33:55.513Z,9.60
2022-11-23T01:36:26.799Z,9.50
2022-11-23T01:38:55.449Z,9.50
2022-11-23T01:41:26.467Z,9.60
2022-11-23T01:43:54.897Z,9.60
2022-11-23T01:46:23.414Z,9.60
2022-11-23T01:48:55.374Z,9.60
2022-11-23T01:51:28.110Z,9.60
2022-11-23T01:54:01.504Z,9.60
2022-11-23T01:56:34.184Z,9.50
2022-11-23T01:59:05.898Z,9.50
2022-11-23T02:01:34.009Z,9.50
2022-11-23T02:04:02.754Z,9.50
2022-11-23T02:06:33.950Z,9.50
2022-11-23T02:09:04.050Z,9.50
2022-11-23T02:11:32.396Z,9.50
2022-11-23T02:14:00.739Z,9.50
2022-11-23T02:16:31.762Z,9.50
2022-11-23T02:19:00.507Z,9.50
2022-11-23T02:21:29.022Z,9.50
2022-11-23T02:24:04.558Z,9.60
2022-11-23T02:26:36.502Z,9.50
2022-11-23T02:29:09.853Z,9.50
2022-11-23T02:31:39.269Z,9.50
2022-11-23T02:34:07.447Z,9.50
2022-11-23T02:36:40.662Z,9.50
2022-11-23T02:39:12.558Z,9.50
2022-11-23T02:41:44.587Z,9.50
2022-11-23T02:44:36.771Z,9.50
2022-11-23T02:47:06.134Z,9.50
2022-11-23T02:49:34.800Z,9.40
2022-11-23T02:52:04.836Z,9.50
2022-11-23T02:54:32.915Z,9.50
2022-11-23T02:57:02.450Z,9.60
2022-11-23T02:59:32.598Z,9.50
2022-11-23T03:02:01.515Z,9.50
2022-11-23T03:04:31.326Z,9.50
2022-11-23T03:06:59.899Z,9.50
2022-11-23T03:09:29.665Z,9.50
2022-11-23T03:11:58.036Z,9.50
2022-11-23T03:14:29.466Z,9.60
2022-11-23T03:17:01.251Z,9.60
2022-11-23T03:19:34.544Z,9.60
2022-11-23T03:22:03.123Z,9.60
2022-11-23T03:24:32.701Z,9.60
2022-11-23T03:27:03.510Z,9.60
2022-11-23T03:29:33.278Z,9.50
2022-11-23T03:32:07.047Z,9.50
2022-11-23T03:34:35.835Z,9.60
2022-11-23T03:37:05.061Z,9.60
2022-11-23T03:39:34.215Z,9.60
2022-11-23T03:42:22.848Z,9.60
2022-11-23T03:44:52.897Z,9.60
2022-11-23T03:47:20.995Z,9.60
2022-11-23T03:49:49.477Z,9.50
2022-11-23T03:52:17.585Z,9.60
2022-11-23T03:54:46.999Z,9.60
2022-11-23T03:57:15.227Z,9.60
2022-11-23T03:59:43.368Z,9.60
2022-11-23T04:02:13.286Z,9.60
2022-11-23T04:04:49.188Z,9.60
2022-11-23T04:07:42.851Z,9.60
2022-11-23T04:10:11.679Z,9.50
2022-11-23T04:12:58.371Z,9.50
2022-11-23T04:15:26.461Z,9.50
2022-11-23T04:17:56.538Z,9.50
2022-11-23T04:20:25.121Z,9.50
2022-11-23T04:22:53.236Z,9.60
2022-11-23T04:25:21.348Z,9.50
2022-11-23T04:27:51.661Z,9.50
2022-11-23T04:30:20.048Z,9.60
2022-11-23T04:32:48.450Z,9.50
2022-11-23T04:35:18.234Z,9.60
2022-11-23T04:37:49.881Z,9.50
2022-11-23T04:40:19.067Z,9.50
2022-11-23T04:43:00.519Z,9.50
2022-11-23T04:45:31.340Z,9.60
2022-11-23T04:48:03.971Z,9.50
2022-11-23T04:50:35.633Z,9.60
2022-11-23T04:53:06.295Z,9.50
2022-11-23T04:55:42.760Z,9.60
2022-11-23T04:58:12.156Z,9.60
2022-11-23T05:00:41.296Z,9.60
2022-11-23T05:03:11.067Z,9.50
2022-11-23T05:05:43.464Z,9.60
2022-11-23T05:08:12.065Z,9.50
2022-11-23T05:10:50.170Z,9.50
2022-11-23T05:13:18.266Z,9.50
2022-11-23T05:15:47.611Z,9.50
2022-11-23T05:18:20.640Z,9.50
2022-11-23T05:20:53.155Z,9.50
2022-11-23T05:23:22.838Z,9.50
2022-11-23T05:25:53.535Z,9.50
2022-11-23T05:28:40.331Z,9.50
2022-11-23T05:31:10.920Z,9.50
2022-11-23T05:33:39.139Z,9.50
2022-11-23T05:36:13.711Z,9.50
2022-11-23T05:38:43.234Z,9.50
2022-11-23T05:41:16.641Z,9.60
2022-11-23T05:43:45.913Z,9.50
2022-11-23T05:46:19.352Z,9.50
2022-11-23T05:48:47.919Z,9.50
2022-11-23T05:51:17.493Z,9.50
2022-11-23T05:53:47.089Z,9.50
2022-11-23T05:56:20.570Z,9.50
2022-11-23T05:59:20.783Z,9.50
2022-11-23T06:01:54.127Z,9.60
2022-11-23T06:04:30.760Z,9.60
2022-11-23T06:07:01.878Z,9.50
2022-11-23T06:09:50.227Z,9.50
2022-11-23T06:12:18.321Z,9.50
2022-11-23T06:14:46.609Z,9.50
2022-11-23T06:17:17.564Z,9.50
2022-11-23T06:19:49.241Z,9.50
2022-11-23T06:22:18.768Z,9.60
2022-11-23T06:24:57.229Z,9.50
2022-11-23T06:27:30.944Z,9.50
2022-11-23T06:30:00.238Z,9.50
2022-11-23T06:32:30.276Z,9.50
2022-11-23T06:35:01.007Z,9.50
2022-11-23T06:37:33.630Z,9.60
2022-11-23T06:40:02.377Z,9.60
2022-11-23T06:42:39.036Z,9.60
2022-11-23T06:45:13.210Z,9.60
2022-11-23T06:47:41.426Z,9.60
2022-11-23T06:50:10.338Z,9.60
2022-11-23T06:52:40.654Z,9.60
2022-11-23T06:55:09.225Z,9.60
2022-11-23T06:57:37.336Z,9.60
2022-11-23T07:00:06.685Z,9.60
2022-11-23T07:02:38.839Z,9.50
2022-11-23T07:05:07.741Z,9.50
2022-11-23T07:07:36.886Z,9.50
2022-11-23T07:10:15.638Z,9.50
2022-11-23T07:12:47.020Z,9.50
2022-11-23T07:15:17.572Z,9.50
2022-11-23T07:17:46.729Z,9.40
2022-11-23T07:20:15.805Z,9.50
2022-11-23T07:22:45.146Z,9.50
2022-11-23T07:25:16.565Z,9.60
2022-11-23T07:27:46.115Z,9.60
2022-11-23T07:30:15.254Z,9.60
2022-11-23T07:32:43.343Z,9.50
2022-11-23T07:35:12.711Z,9.50
2022-11-23T07:37:43.303Z,9.60
2022-11-23T07:40:12.091Z,9.60
2022-11-23T07:42:44.938Z,9.50
2022-11-23T07:45:15.741Z,9.50
2022-11-23T07:47:47.030Z,9.60
2022-11-23T07:50:15.782Z,9.60
2022-11-23T07:52:43.854Z,9.60
2022-11-23T07:55:11.991Z,9.60
2022-11-23T07:57:40.112Z,9.60
2022-11-23T08:00:10.034Z,9.60
2022-11-23T08:02:58.197Z,9.60
2022-11-23T08:05:34.737Z,9.60
2022-11-23T08:08:04.275Z,9.60
2022-11-23T08:10:33.183Z,9.60
2022-11-23T08:13:02.251Z,9.70
2022-11-23T08:15:30.536Z,9.60
2022-11-23T08:18:01.221Z,9.60
2022-11-23T08:20:30.813Z,9.60
2022-11-23T08:22:59.010Z,9.60
2022-11-23T08:25:28.698Z,9.70
2022-11-23T08:27:57.485Z,9.70
2022-11-23T08:30:27.907Z,9.60
2022-11-23T08:32:56.028Z,9.60
2022-11-23T08:35:25.718Z,9.60
2022-11-23T08:37:53.797Z,9.60
2022-11-23T08:40:25.364Z,9.60
2022-11-23T08:42:53.921Z,9.60
2022-11-23T08:45:22.756Z,9.70
2022-11-23T08:47:51.871Z,9.60
2022-11-23T08:50:20.935Z,9.60
2022-11-23T08:52:56.226Z,9.70
2022-11-23T08:55:24.714Z,9.60
2022-11-23T08:57:56.099Z,9.60
2022-11-23T09:00:24.423Z,9.60
2022-11-23T09:02:52.559Z,9.70
2022-11-23T09:05:21.018Z,9.70
2022-11-23T09:07:50.459Z,9.70
2022-11-23T09:10:19.453Z,9.70
2022-11-23T09:12:49.280Z,9.70
2022-11-23T09:15:17.761Z,9.80
2022-11-23T09:17:46.197Z,9.80
2022-11-23T09:20:14.380Z,9.90
2022-11-23T09:22:42.706Z,9.90
2022-11-23T09:25:12.499Z,9.90
2022-11-23T09:27:40.606Z,10.00
2022-11-23T09:30:10.257Z,9.90
2022-11-23T09:32:38.316Z,9.90
2022-11-23T09:35:07.328Z,10.00
2022-11-23T09:37:35.554Z,10.00
2022-11-23T09:40:04.343Z,10.00
2022-11-23T09:42:51.784Z,10.00
2022-11-23T09:45:27.692Z,10.10
2022-11-23T09:48:24.280Z,10.20
2022-11-23T09:50:59.522Z,10.20
2022-11-23T09:53:35.198Z,10.20
2022-11-23T09:56:03.434Z,10.20
2022-11-23T09:58:37.603Z,10.20
2022-11-23T10:01:08.625Z,10.20
2022-11-23T10:03:41.529Z,10.30
2022-11-23T10:06:19.383Z,10.40
2022-11-23T10:09:00.880Z,10.40
2022-11-23T10:11:57.299Z,10.50
2022-11-23T10:14:43.139Z,10.50
2022-11-23T10:17:18.361Z,10.60
2022-11-23T10:20:01.315Z,10.70
2022-11-23T10:22:35.395Z,10.70
2022-11-23T10:25:15.292Z,10.70
2022-11-23T10:27:45.951Z,10.80
2022-11-23T10:30:18.472Z,10.80
2022-11-23T10:32:51.598Z,10.80
2022-11-23T10:35:28.315Z,10.80
2022-11-23T10:38:15.041Z,10.90
2022-11-23T10:40:59.450Z,10.80
2022-11-23T10:43:32.437Z,10.80
2022-11-23T10:46:30.870Z,10.70
2022-11-23T10:49:14.202Z,10.60
2022-11-23T10:51:49.389Z,10.60
2022-11-23T10:54:23.216Z,10.70
2022-11-23T10:56:53.004Z,10.60
2022-11-23T10:59:29.782Z,10.70
2022-11-23T11:02:15.549Z,10.70
2022-11-23T11:04:44.229Z,10.70
2022-11-23T11:07:31.044Z,10.70
2022-11-23T11:10:01.189Z,10.70
2022-11-23T11:12:33.291Z,10.60
2022-11-23T11:15:11.288Z,10.70
2022-11-23T11:17:42.045Z,10.80
2022-11-23T11:20:32.247Z,10.70
2022-11-23T11:23:02.656Z,10.80
2022-11-23T11:25:33.583Z,10.90
2022-11-23T11:28:03.499Z,11.00
2022-11-23T11:30:45.704Z,11.00
2022-11-23T11:33:21.216Z,11.00
2022-11-23T11:35:52.828Z,11.00
2022-11-23T11:38:25.536Z,11.00
2022-11-23T11:40:54.282Z,11.00
2022-11-23T11:43:34.679Z,11.10
2022-11-23T11:49:08.559Z,11.10
2022-11-23T11:51:42.116Z,11.10
2022-11-23T11:54:19.705Z,11.10
2022-11-23T11:56:51.087Z,11.10
2022-11-23T11:59:25.872Z,11.10
2022-11-23T12:01:58.553Z,11.10
2022-11-23T12:04:38.543Z,11.10
2022-11-23T12:07:13.601Z,11.10
2022-11-23T12:09:45.293Z,11.10
2022-11-23T12:12:17.102Z,11.20
2022-11-23T12:14:46.679Z,11.20
2022-11-23T12:17:34.552Z,11.20
2022-11-23T12:20:17.242Z,11.20
2022-11-23T12:22:57.204Z,11.20
2022-11-23T12:25:34.545Z,11.10
2022-11-23T12:28:17.414Z,11.10
2022-11-23T12:30:57.512Z,11.10
2022-11-23T12:36:52.395Z,11.20
2022-11-23T12:39:39.233Z,11.20
2022-11-23T12:42:13.737Z,11.20
2022-11-23T12:44:58.238Z,11.20
2022-11-23T12:47:36.253Z,11.20
2022-11-23T12:50:15.435Z,11.20
2022-11-23T12:52:58.947Z,11.30
2022-11-23T12:55:35.844Z,11.20
2022-11-23T12:58:09.760Z,11.20
2022-11-23T13:00:42.793Z,11.30
2022-11-23T13:04:02.597Z,11.20
2022-11-23T13:07:28.030Z,11.20
2022-11-23T13:10:21.348Z,11.20
2022-11-23T13:13:16.034Z,11.20
2022-11-23T13:16:15.782Z,11.20
2022-11-23T13:19:02.989Z,11.20
2022-11-23T13:21:37.359Z,11.20
2022-11-23T13:24:06.359Z,11.20
2022-11-23T13:26:35.770Z,11.20
2022-11-23T13:29:38.748Z,11.10
2022-11-23T13:32:35.069Z,11.20
2022-11-23T13:35:03.168Z,11.20
2022-11-23T13:37:31.671Z,11.20
2022-11-23T13:40:04.632Z,11.20
2022-11-23T13:42:35.851Z,11.20
2022-11-23T13:45:26.647Z,11.10
2022-11-23T13:48:54.988Z,11.10
2022-11-23T13:51:10.877Z,11.10
2022-11-23T13:53:42.019Z,11.20
2022-11-23T13:56:31.920Z,11.20
2022-11-23T13:59:27.972Z,11.10
2022-11-23T14:02:00.580Z,11.10
2022-11-23T14:04:30.636Z,11.10
2022-11-23T14:07:02.865Z,11.10
2022-11-23T14:09:36.846Z,11.10
2022-11-23T14:12:14.735Z,11.10
2022-11-23T14:14:57.015Z,11.00
2022-11-23T14:17:47.145Z,10.90
2022-11-23T14:20:28.151Z,10.90
2022-11-23T14:23:13.314Z,10.90
2022-11-23T14:25:51.077Z,10.90
2022-11-23T14:28:34.587Z,10.90
2022-11-23T14:31:17.288Z,10.90
2022-11-23T14:33:52.053Z,10.80
2022-11-23T14:36:28.141Z,10.80
2022-11-23T14:39:37.970Z,10.80
2022-11-23T14:42:13.953Z,10.80
2022-11-23T14:44:43.414Z,10.80
2022-11-23T14:47:13.362Z,10.90
2022-11-23T14:49:51.538Z,10.80
2022-11-23T14:52:22.881Z,10.80
2022-11-23T14:54:52.410Z,10.80
2022-11-23T14:57:22.865Z,10.70
2022-11-23T14:59:55.210Z,10.70
2022-11-23T15:02:31.043Z,10.70
2022-11-23T15:05:07.018Z,10.60
2022-11-23T15:07:46.277Z,10.70
2022-11-23T15:10:28.930Z,10.60
2022-11-23T15:12:57.040Z,10.60
2022-11-23T15:15:27.770Z,10.60
2022-11-23T15:17:58.779Z,10.50
2022-11-23T15:20:32.386Z,10.40
2022-11-23T15:23:01.710Z,10.40
2022-11-23T15:25:30.561Z,10.40
2022-11-23T15:27:58.808Z,10.40
2022-11-23T15:30:29.828Z,10.30
2022-11-23T15:33:01.073Z,10.30
2022-11-23T15:35:33.762Z,10.30
2022-11-23T15:38:03.420Z,10.30
2022-11-23T15:40:34.318Z,10.20
2022-11-23T15:43:02.672Z,10.20
2022-11-23T15:45:40.003Z,10.20
2022-11-23T15:48:14.409Z,10.20
2022-11-23T15:50:50.565Z,10.10
2022-11-23T15:53:19.417Z,10.10
2022-11-23T15:55:47.934Z,10.10
2022-11-23T15:58:18.641Z,10.00
2022-11-23T16:00:51.174Z,10.00
2022-11-23T16:03:31.563Z,9.90
2022-11-23T16:06:25.555Z,9.80
2022-11-23T16:08:53.741Z,9.70
2022-11-23T16:11:28.715Z,9.70
2022-11-23T16:14:16.517Z,9.70
2022-11-23T16:16:46.507Z,9.70
2022-11-23T16:19:28.722Z,9.60
2022-11-23T16:22:02.785Z,9.70
2022-11-23T16:24:33.925Z,9.60
2022-11-23T16:27:02.910Z,9.60
2022-11-23T16:29:35.599Z,9.70
2022-11-23T16:32:06.988Z,9.60
2022-11-23T16:34:36.505Z,9.60
2022-11-23T16:37:04.833Z,9.50
2022-11-23T16:39:32.942Z,9.60
2022-11-23T16:42:01.025Z,9.70
2022-11-23T16:44:31.230Z,9.80
2022-11-23T16:47:19.089Z,9.80
2022-11-23T16:49:49.005Z,9.80
2022-11-23T16:52:17.330Z,9.90
2022-11-23T16:54:45.484Z,9.80
2022-11-23T16:57:21.073Z,9.90
2022-11-23T16:59:49.345Z,9.80
2022-11-23T17:02:17.860Z,9.80
2022-11-23T17:04:46.144Z,9.80
2022-11-23T17:07:16.819Z,9.80
2022-11-23T17:09:45.319Z,9.70
2022-11-23T17:12:16.964Z,9.70
2022-11-23T17:14:47.060Z,9.70
2022-11-23T17:17:19.303Z,9.70
2022-11-23T17:19:48.185Z,9.70
2022-11-23T17:22:18.415Z,9.70
2022-11-23T17:24:47.300Z,9.80
2022-11-23T17:27:17.443Z,9.80
2022-11-23T17:29:47.140Z,9.80
2022-11-23T17:32:15.849Z,9.90
2022-11-23T17:34:44.063Z,9.80
2022-11-23T17:37:19.830Z,9.90
2022-11-23T17:39:48.566Z,9.90
2022-11-23T17:42:17.188Z,9.80
2022-11-23T17:44:45.332Z,9.80
2022-11-23T17:47:20.254Z,9.90
2022-11-23T17:49:48.351Z,9.90
2022-11-23T17:52:17.810Z,9.90
2022-11-23T17:54:45.849Z,9.90
2022-11-23T17:57:15.926Z,9.90
2022-11-23T17:59:44.413Z,9.90
2022-11-23T18:02:12.603Z,10.00
2022-11-23T18:04:40.712Z,10.00
2022-11-23T18:07:11.462Z,10.00
2022-11-23T18:09:41.010Z,10.10
2022-11-23T18:12:10.017Z,10.10
2022-11-23T18:14:38.575Z,10.20
2022-11-23T18:17:06.672Z,10.20
2022-11-23T18:19:35.028Z,10.20
2022-11-23T18:22:03.365Z,10.10
2022-11-23T18:24:31.445Z,10.10
2022-11-23T18:27:00.873Z,10.10
2022-11-23T18:29:29.144Z,10.10
2022-11-23T18:31:57.259Z,10.10
2022-11-23T18:34:25.341Z,10.00
2022-11-23T18:36:53.402Z,10.00
2022-11-23T18:39:21.472Z,10.10
2022-11-23T18:41:49.524Z,9.90
2022-11-23T18:44:18.933Z,10.00
2022-11-23T18:46:47.137Z,10.00
2022-11-23T18:49:15.872Z,10.00
2022-11-23T18:51:43.930Z,10.00
2022-11-23T18:54:12.031Z,9.90
2022-11-23T18:56:40.101Z,9.90
2022-11-23T18:59:10.915Z,9.90
2022-11-23T19:01:48.696Z,9.90
2022-11-23T19:04:16.933Z,10.00
2022-11-23T19:06:45.005Z,9.80
2022-11-23T19:09:14.601Z,9.90
2022-11-23T19:11:42.655Z,9.80
2022-11-23T19:14:11.553Z,9.80
2022-11-23T19:16:39.720Z,9.80
2022-11-23T19:19:09.137Z,9.80
2022-11-23T19:21:37.489Z,9.80
2022-11-23T19:24:07.333Z,9.80
2022-11-23T19:26:35.534Z,9.90
2022-11-23T19:29:04.514Z,9.80
2022-11-23T19:31:33.230Z,9.80
2022-11-23T19:34:03.690Z,9.80
2022-11-23T19:36:36.303Z,9.80
2022-11-23T19:39:05.900Z,9.80
2022-11-23T19:41:34.073Z,9.80
2022-11-23T19:44:02.503Z,9.70
2022-11-23T19:46:31.625Z,9.70
2022-11-23T19:49:00.181Z,9.80
2022-11-23T19:51:29.232Z,9.70
2022-11-23T19:54:00.843Z,9.70
2022-11-23T19:56:29.980Z,9.70
2022-11-23T19:59:00.237Z,9.70
2022-11-23T20:01:31.715Z,9.70
2022-11-23T20:04:08.734Z,9.70
2022-11-23T20:06:38.623Z,9.70
2022-11-23T20:09:09.682Z,9.80
2022-11-23T20:11:39.966Z,9.80
2022-11-23T20:14:08.396Z,9.80
2022-11-23T20:16:36.664Z,9.80
2022-11-23T20:19:06.732Z,9.80
2022-11-23T20:21:35.431Z,9.80
2022-11-23T20:24:05.820Z,9.80
2022-11-23T20:26:36.655Z,9.80
2022-11-23T20:29:06.187Z,9.70
2022-11-23T20:31:35.692Z,9.70
2022-11-23T20:34:07.054Z,9.70
2022-11-23T20:36:38.082Z,9.80
2022-11-23T20:39:08.255Z,9.80
2022-11-23T20:41:38.370Z,9.90
2022-11-23T20:44:07.987Z,9.80
2022-11-23T20:49:24.523Z,9.80
2022-11-23T20:51:52.577Z,9.90
2022-11-23T20:54:20.668Z,9.90
2022-11-23T20:56:50.124Z,9.80
2022-11-23T20:59:19.728Z,9.80
2022-11-23T21:01:48.029Z,9.80
2022-11-23T21:04:16.151Z,9.80
2022-11-23T21:06:44.463Z,9.80
2022-11-23T21:09:12.578Z,9.70
2022-11-23T21:11:58.007Z,9.70
2022-11-23T21:14:29.187Z,9.70
2022-11-23T21:16:59.178Z,9.70
2022-11-23T21:19:28.971Z,9.70
2022-11-23T21:21:58.745Z,9.70
2022-11-23T21:24:26.942Z,9.70
2022-11-23T21:26:55.031Z,9.70
2022-11-23T21:29:23.742Z,9.70
2022-11-23T21:31:53.217Z,9.70
2022-11-23T21:34:22.817Z,9.60
2022-11-23T21:36:51.366Z,9.60
2022-11-23T21:39:20.161Z,9.60
2022-11-23T21:41:52.054Z,9.60
2022-11-23T21:44:21.993Z,9.60
2022-11-23T21:46:50.232Z,9.60
2022-11-23T21:49:19.722Z,9.60
2022-11-23T21:51:48.179Z,9.60
2022-11-23T21:54:16.627Z,9.60
2022-11-23T21:56:46.010Z,9.60
2022-11-23T21:59:14.647Z,9.70
2022-11-23T22:01:43.361Z,9.60
2022-11-23T22:04:13.147Z,9.60
2022-11-23T22:06:44.465Z,9.60
2022-11-23T22:09:13.980Z,9.60
2022-11-23T22:11:44.222Z,9.60
2022-11-23T22:14:13.993Z,9.60
2022-11-23T22:16:43.956Z,9.60
2022-11-23T22:19:13.345Z,9.60
2022-11-23T22:21:44.686Z,9.60
2022-11-23T22:24:14.514Z,9.60
2022-11-23T22:26:43.038Z,9.60
2022-11-23T22:29:11.903Z,9.70
2022-11-23T22:31:40.559Z,9.70
2022-11-23T22:34:11.946Z,9.60
2022-11-23T22:36:40.273Z,9.60
2022-11-23T22:39:10.378Z,9.60
2022-11-23T22:41:38.914Z,9.60
2022-11-23T22:44:08.709Z,9.60
2022-11-23T22:46:37.444Z,9.60
2022-11-23T22:49:06.017Z,9.60
2022-11-23T22:51:34.544Z,9.60
2022-11-23T22:54:03.166Z,9.70
2022-11-23T22:56:32.867Z,9.80
2022-11-23T22:59:01.353Z,9.70
2022-11-23T23:01:31.137Z,9.70
2022-11-23T23:04:01.248Z,9.70
2022-11-23T23:06:31.413Z,9.70
2022-11-23T23:09:01.226Z,9.70
2022-11-23T23:11:32.346Z,9.60
2022-11-23T23:14:00.925Z,9.60
2022-11-23T23:16:30.124Z,9.50
2022-11-23T23:18:59.309Z,9.60
2022-11-23T23:21:29.164Z,9.50
2022-11-23T23:23:59.916Z,9.50
2022-11-23T23:26:28.920Z,9.50
2022-11-23T23:29:00.868Z,9.60
2022-11-23T23:31:30.714Z,9.50
2022-11-23T23:34:00.675Z,9.50
2022-11-23T23:36:29.599Z,9.50
2022-11-23T23:38:58.555Z,9.50
2022-11-23T23:41:26.847Z,9.40
2022-11-23T23:43:55.135Z,9.40
2022-11-23T23:46:25.684Z,9.50
2022-11-23T23:48:53.988Z,9.50
2022-11-23T23:51:24.264Z,9.40
2022-11-23T23:53:52.775Z,9.40
2022-11-23T23:56:22.534Z,9.40
2022-11-23T23:58:50.932Z,9.50
